Hovedside
METAR-TAF:

METAR-TAF

Lufthavner :

Jeddah, Saudi-Arabia

breddegrad: 21-42N, lengdegrad: 039-11E, høyde over havet: 15 m

Gjeldene værobservasjon

Denne rapporten ble laget for 35 minutter siden, klokken 23:00 UTC
Vind 5 kt fra Nord-nordvest
Temperatur 31°C
Luftfuktighet 71%
Trykk 1004 hPa
Sikt 10 km eller mer
ingen skyer under 1500 m og ingen bygeskyer

METAR: OEJN 222300Z 34005KT CAVOK 31/25 Q1004 NOSIG

Tid: 02:35 (23:35 UTC)

Varsel

Denne rapporten ble laget for 35 minutter siden, klokken 23:00 UTC
Varsel gyldig fra 23. klokken 00 UTC til 24. klokken 06 UTC
Vind 16 kt fra Øst-nordøst
Sikt: 6000 m
Blir
fra 23. klokken 06 UTC til 23. klokken 08 UTC
Vind 14 kt fra Nord-nordvest
Blir
fra 23. klokken 18 UTC til 23. klokken 20 UTC
Vind 6 kt fra Nord
Sikt 10 km eller mer
ingen skyer under 1500 m og ingen bygeskyer

TAF: OEJN 222300Z 2300/2406 07016KT 6000 NSC BECMG 2306/2308 33014KT BECMG 2318/2320 36006KT CAVOK

Værobservasjoner og værvarsel for over 4000 flyplasser (METAR- og TAF-rapporter).

Tilgjengelige stasjoner er representert av de røde og gule prikkene på kartet.

Hold musepekeren over prikken for å se navnet på stasjonen.

Klikk så for å se værobservasjoner og -varsler.

For å forandre kartet kan du klikke på den grønne knappen med svart kryss for å zoome inn, på den grønne knappen med strek for å zoome ut, eller på de grønne pilene for å se tilstøtende kart.


METAR-TAF: